createdAt,value
2023-05-12T00:01:21.881Z,43.22
2023-05-12T00:03:55.353Z,43.63
2023-05-12T00:06:28.345Z,43.56
2023-05-12T00:08:59.813Z,42.51
2023-05-12T00:11:32.333Z,43.24
2023-05-12T00:14:04.650Z,43.48
2023-05-12T00:16:36.926Z,43.86
2023-05-12T00:19:09.168Z,44.41
2023-05-12T00:21:40.714Z,44.58
2023-05-12T00:24:12.343Z,44.22
2023-05-12T00:26:43.729Z,44.78
2023-05-12T00:29:15.340Z,44.89
2023-05-12T00:31:48.579Z,44.78
2023-05-12T00:34:19.755Z,44.99
2023-05-12T00:36:51.558Z,44.18
2023-05-12T00:39:23.928Z,43.52
2023-05-12T00:42:02.213Z,44.80
2023-05-12T00:44:34.610Z,45.47
2023-05-12T00:47:10.032Z,46.52
2023-05-12T00:49:44.940Z,46.91
2023-05-12T00:52:16.468Z,46.59
2023-05-12T00:54:48.656Z,46.45
2023-05-12T00:57:19.288Z,46.40
2023-05-12T00:59:50.477Z,47.31
2023-05-12T01:02:20.488Z,47.95
2023-05-12T01:04:51.735Z,47.11
2023-05-12T01:07:23.756Z,47.32
2023-05-12T01:10:00.278Z,47.00
2023-05-12T01:12:33.278Z,46.87
2023-05-12T01:15:03.651Z,46.72
2023-05-12T01:17:37.420Z,49.14
2023-05-12T01:20:10.855Z,50.59
2023-05-12T01:22:41.133Z,50.52
2023-05-12T01:25:13.546Z,48.89
2023-05-12T01:27:42.628Z,47.39
2023-05-12T01:30:16.584Z,48.36
2023-05-12T01:32:46.197Z,48.45
2023-05-12T01:35:15.296Z,48.37
2023-05-12T01:37:50.455Z,49.11
2023-05-12T01:40:19.920Z,49.78
2023-05-12T01:42:49.821Z,50.46
2023-05-12T01:45:20.184Z,48.84
2023-05-12T01:47:50.635Z,49.84
2023-05-12T01:50:20.140Z,50.91
2023-05-12T01:52:49.827Z,51.29
2023-05-12T01:55:21.507Z,49.69
2023-05-12T01:57:58.752Z,49.53
2023-05-12T02:00:28.325Z,49.52
2023-05-12T02:02:59.849Z,49.93
2023-05-12T02:05:29.085Z,49.88
2023-05-12T02:07:58.560Z,50.36
2023-05-12T02:10:28.811Z,50.77
2023-05-12T02:12:57.826Z,50.57
2023-05-12T02:15:28.354Z,50.64
2023-05-12T02:17:59.258Z,48.36
2023-05-12T02:20:30.667Z,48.24
2023-05-12T02:22:59.856Z,48.76
2023-05-12T02:25:31.884Z,47.74
2023-05-12T02:28:01.148Z,47.75
2023-05-12T02:30:30.115Z,47.92
2023-05-12T02:32:59.573Z,47.82
2023-05-12T02:35:28.677Z,46.13
2023-05-12T02:37:57.914Z,43.85
2023-05-12T02:40:26.930Z,43.61
2023-05-12T02:42:58.509Z,41.57
2023-05-12T02:45:27.641Z,40.90
2023-05-12T02:47:56.740Z,39.77
2023-05-12T02:50:25.986Z,37.86
2023-05-12T02:52:55.034Z,37.02
2023-05-12T02:55:24.412Z,34.91
2023-05-12T02:57:53.363Z,33.19
2023-05-12T03:00:22.481Z,34.43
2023-05-12T03:02:51.711Z,33.35
2023-05-12T03:05:21.163Z,33.84
2023-05-12T03:07:50.957Z,34.31
2023-05-12T03:10:20.471Z,33.07
2023-05-12T03:12:49.887Z,32.94
2023-05-12T03:15:19.264Z,34.20
2023-05-12T03:17:48.380Z,34.89
2023-05-12T03:20:18.050Z,35.78
2023-05-12T03:22:47.620Z,33.39
2023-05-12T03:25:17.851Z,33.71
2023-05-12T03:27:46.834Z,32.79
2023-05-12T03:30:16.313Z,31.97
2023-05-12T03:32:47.348Z,32.15
2023-05-12T03:35:16.945Z,31.78
2023-05-12T03:37:46.032Z,31.07
2023-05-12T03:40:19.655Z,31.47
2023-05-12T03:42:49.195Z,31.39
2023-05-12T03:45:20.552Z,31.88
2023-05-12T03:47:50.555Z,32.34
2023-05-12T03:50:20.300Z,32.45
2023-05-12T03:52:49.559Z,33.07
2023-05-12T03:55:18.889Z,32.82
2023-05-12T03:57:50.371Z,32.02
2023-05-12T04:00:20.358Z,31.12
2023-05-12T04:02:49.782Z,32.33
2023-05-12T04:05:18.840Z,32.52
2023-05-12T04:07:47.905Z,32.08
2023-05-12T04:10:16.888Z,31.88
2023-05-12T04:12:46.073Z,31.79
2023-05-12T04:15:15.737Z,30.78
2023-05-12T04:17:44.899Z,31.19
2023-05-12T04:20:14.523Z,31.79
2023-05-12T04:22:45.152Z,31.75
2023-05-12T04:25:14.320Z,31.01
2023-05-12T04:27:43.411Z,31.40
2023-05-12T04:30:12.844Z,30.73
2023-05-12T04:32:43.956Z,29.83
2023-05-12T04:35:13.609Z,29.00
2023-05-12T04:37:43.646Z,30.05
2023-05-12T04:40:13.997Z,29.01
2023-05-12T04:42:46.794Z,28.80
2023-05-12T04:45:19.366Z,27.71
2023-05-12T04:47:49.127Z,27.62
2023-05-12T04:50:21.503Z,26.34
2023-05-12T04:52:50.844Z,25.41
2023-05-12T04:55:20.100Z,25.71
2023-05-12T04:57:49.423Z,25.76
2023-05-12T05:00:18.545Z,24.39
2023-05-12T05:02:49.083Z,24.57
2023-05-12T05:05:19.062Z,24.01
2023-05-12T05:07:48.694Z,24.37
2023-05-12T05:10:17.647Z,24.64
2023-05-12T05:12:47.848Z,23.93
2023-05-12T05:15:18.888Z,23.23
2023-05-12T05:17:50.659Z,22.61
2023-05-12T05:20:20.808Z,23.47
2023-05-12T05:22:56.804Z,24.02
2023-05-12T05:25:27.879Z,24.11
2023-05-12T05:27:58.131Z,23.37
2023-05-12T05:30:27.401Z,22.49
2023-05-12T05:32:56.998Z,21.84
2023-05-12T05:35:26.225Z,21.34
2023-05-12T05:37:58.617Z,21.19
2023-05-12T05:40:30.563Z,21.57
2023-05-12T05:43:03.224Z,21.29
2023-05-12T05:45:32.719Z,20.53
2023-05-12T05:48:02.339Z,21.08
2023-05-12T05:50:31.745Z,21.92
2023-05-12T05:53:01.011Z,20.10
2023-05-12T05:55:30.476Z,20.48
2023-05-12T05:57:59.739Z,21.06
2023-05-12T06:00:28.918Z,21.05
2023-05-12T06:02:58.262Z,21.46
2023-05-12T06:08:30.955Z,19.51
2023-05-12T06:11:00.232Z,20.47
2023-05-12T06:13:29.028Z,20.53
2023-05-12T06:15:58.200Z,21.15
2023-05-12T06:18:27.238Z,20.32
2023-05-12T06:20:56.644Z,20.93
2023-05-12T06:23:25.796Z,18.73
2023-05-12T06:25:55.341Z,19.83
2023-05-12T06:28:24.941Z,19.39
2023-05-12T06:30:55.297Z,19.73
2023-05-12T06:33:26.279Z,20.00
2023-05-12T06:35:56.054Z,18.41
2023-05-12T06:38:26.110Z,19.78
2023-05-12T06:40:56.111Z,18.70
2023-05-12T06:43:26.071Z,19.58
2023-05-12T06:45:58.230Z,19.75
2023-05-12T06:48:29.456Z,19.28
2023-05-12T06:51:02.008Z,19.65
2023-05-12T06:53:32.735Z,20.81
2023-05-12T06:56:02.781Z,20.02
2023-05-12T06:58:33.303Z,20.77
2023-05-12T07:01:07.965Z,20.96
2023-05-12T07:03:45.275Z,20.71
2023-05-12T07:06:18.259Z,21.06
2023-05-12T07:08:51.285Z,20.83
2023-05-12T07:11:24.231Z,20.11
2023-05-12T07:13:57.420Z,20.17
2023-05-12T07:16:28.026Z,20.46
2023-05-12T07:18:59.854Z,19.60
2023-05-12T07:21:30.877Z,19.77
2023-05-12T07:24:02.918Z,19.53
2023-05-12T07:26:35.224Z,19.02
2023-05-12T07:29:08.804Z,18.59
2023-05-12T07:31:41.061Z,19.19
2023-05-12T07:34:19.725Z,18.62
2023-05-12T07:36:50.208Z,19.16
2023-05-12T07:39:24.973Z,18.14
2023-05-12T07:41:56.512Z,18.53
2023-05-12T07:44:35.566Z,18.88
2023-05-12T07:47:15.529Z,17.91
2023-05-12T07:49:45.711Z,18.27
2023-05-12T07:52:19.704Z,18.90
2023-05-12T07:54:49.643Z,19.07
2023-05-12T07:57:19.625Z,18.43
2023-05-12T07:59:49.657Z,18.33
2023-05-12T08:02:22.112Z,18.47
2023-05-12T08:04:52.794Z,18.38
2023-05-12T08:07:22.728Z,18.00
2023-05-12T08:09:52.217Z,17.39
2023-05-12T08:12:21.693Z,17.53
2023-05-12T08:14:50.635Z,18.25
2023-05-12T08:17:19.870Z,17.95
2023-05-12T08:19:49.114Z,17.11
2023-05-12T08:22:21.502Z,17.70
2023-05-12T08:24:51.357Z,17.14
2023-05-12T08:27:21.938Z,17.78
2023-05-12T08:29:51.323Z,18.64
2023-05-12T08:32:20.444Z,17.58
2023-05-12T08:34:50.186Z,17.28
2023-05-12T08:37:20.208Z,17.84
2023-05-12T08:39:49.657Z,17.57
2023-05-12T08:42:44.779Z,17.08
2023-05-12T08:45:14.032Z,16.55
2023-05-12T08:47:44.654Z,17.80
2023-05-12T08:50:18.550Z,17.22
2023-05-12T08:52:48.349Z,17.69
2023-05-12T08:55:19.174Z,18.13
2023-05-12T08:57:49.930Z,17.89
2023-05-12T09:00:20.593Z,18.56
2023-05-12T09:02:54.339Z,18.70
2023-05-12T09:05:24.701Z,17.64
2023-05-12T09:07:57.235Z,17.36
2023-05-12T09:10:34.976Z,17.08
2023-05-12T09:13:15.955Z,17.54
2023-05-12T09:15:48.975Z,18.07
2023-05-12T09:18:18.923Z,17.00
2023-05-12T09:20:48.883Z,17.93
2023-05-12T09:23:25.974Z,19.52
2023-05-12T09:26:02.999Z,18.39
2023-05-12T09:28:40.407Z,18.43
2023-05-12T09:31:21.262Z,18.58
2023-05-12T09:34:07.732Z,17.94
2023-05-12T09:36:39.067Z,17.44
2023-05-12T09:39:12.967Z,17.93
2023-05-12T09:41:44.664Z,17.44
2023-05-12T09:44:20.926Z,17.92
2023-05-12T09:47:09.348Z,18.98
2023-05-12T09:49:39.749Z,19.68
2023-05-12T09:52:25.021Z,19.86
2023-05-12T09:55:05.526Z,18.03
2023-05-12T09:57:41.191Z,18.47
2023-05-12T10:00:30.316Z,19.90
2023-05-12T10:03:23.018Z,18.75
2023-05-12T10:06:02.595Z,18.34
2023-05-12T10:09:02.680Z,19.32
2023-05-12T10:11:43.492Z,18.99
2023-05-12T10:14:16.118Z,19.14
2023-05-12T10:16:54.134Z,18.81
2023-05-12T10:19:28.767Z,20.60
2023-05-12T10:22:04.467Z,19.54
2023-05-12T10:24:37.169Z,19.72
2023-05-12T10:27:14.451Z,19.77
2023-05-12T10:29:48.297Z,19.56
2023-05-12T10:32:23.738Z,19.96
2023-05-12T10:34:56.863Z,19.73
2023-05-12T10:37:27.170Z,19.90
2023-05-12T10:40:01.392Z,19.55
2023-05-12T10:42:43.508Z,18.97
2023-05-12T10:45:20.699Z,19.92
2023-05-12T10:47:54.112Z,19.55
2023-05-12T10:50:39.520Z,18.78
2023-05-12T10:53:16.694Z,18.87
2023-05-12T10:55:54.741Z,19.30
2023-05-12T10:58:29.867Z,19.69
2023-05-12T11:01:13.895Z,19.91
2023-05-12T11:03:51.109Z,20.31
2023-05-12T11:06:24.347Z,20.24
2023-05-12T11:08:57.364Z,20.19
2023-05-12T11:11:34.188Z,21.52
2023-05-12T11:14:04.962Z,20.55
2023-05-12T11:16:35.484Z,21.35
2023-05-12T11:19:06.090Z,20.56
2023-05-12T11:21:36.707Z,21.11
2023-05-12T11:24:07.565Z,20.37
2023-05-12T11:26:41.871Z,19.75
2023-05-12T11:29:11.912Z,20.14
2023-05-12T11:31:50.367Z,20.46
2023-05-12T11:34:27.934Z,19.56
2023-05-12T11:36:59.128Z,20.47
2023-05-12T11:39:33.605Z,20.40
2023-05-12T11:42:13.996Z,21.45
2023-05-12T11:44:51.945Z,21.89
2023-05-12T11:47:22.265Z,22.15
2023-05-12T11:49:56.957Z,22.12
2023-05-12T11:52:28.876Z,22.29
2023-05-12T11:55:07.314Z,21.32
2023-05-12T11:57:37.766Z,21.70
2023-05-12T12:00:11.332Z,22.17
2023-05-12T12:02:44.624Z,22.05
2023-05-12T12:05:23.116Z,22.70
2023-05-12T12:07:53.479Z,22.69
2023-05-12T12:10:23.595Z,21.58
2023-05-12T12:12:56.250Z,22.29
2023-05-12T12:15:26.481Z,21.88
2023-05-12T12:17:56.302Z,22.17
2023-05-12T12:20:28.580Z,22.26
2023-05-12T12:22:58.481Z,22.71
2023-05-12T12:25:28.540Z,22.57
2023-05-12T12:28:01.710Z,23.43
2023-05-12T12:30:34.141Z,23.22
2023-05-12T12:33:04.344Z,23.30
2023-05-12T12:35:35.102Z,23.23
2023-05-12T12:38:04.939Z,24.17
2023-05-12T12:40:34.735Z,23.87
2023-05-12T12:43:05.264Z,24.18
2023-05-12T12:45:35.130Z,24.21
2023-05-12T12:48:05.157Z,24.25
2023-05-12T12:50:36.646Z,24.77
2023-05-12T12:53:06.624Z,24.87
2023-05-12T12:55:36.306Z,26.21
2023-05-12T12:58:06.040Z,24.75
2023-05-12T13:00:35.685Z,24.21
2023-05-12T13:03:05.405Z,25.00
2023-05-12T13:05:35.085Z,24.83
2023-05-12T13:08:04.559Z,24.34
2023-05-12T13:10:33.990Z,24.31
2023-05-12T13:13:03.168Z,24.50
2023-05-12T13:15:33.317Z,23.96
2023-05-12T13:18:02.646Z,24.56
2023-05-12T13:20:31.753Z,24.91
2023-05-12T13:23:00.965Z,26.20
2023-05-12T13:25:31.624Z,26.97
2023-05-12T13:28:01.362Z,26.19
2023-05-12T13:30:31.170Z,26.89
2023-05-12T13:33:01.905Z,25.67
2023-05-12T13:35:32.037Z,25.62
2023-05-12T13:38:00.992Z,26.66
2023-05-12T13:40:30.239Z,27.11
2023-05-12T13:42:59.512Z,27.22
2023-05-12T13:45:28.751Z,27.16
2023-05-12T13:47:58.484Z,27.78
2023-05-12T13:50:27.966Z,27.67
2023-05-12T13:52:57.052Z,29.11
2023-05-12T13:55:26.751Z,29.47
2023-05-12T13:57:56.304Z,29.72
2023-05-12T14:00:28.190Z,30.14
2023-05-12T14:02:58.797Z,30.19
2023-05-12T14:05:28.348Z,30.39
2023-05-12T14:07:57.787Z,30.91
2023-05-12T14:10:26.736Z,30.33
2023-05-12T14:12:55.552Z,29.84
2023-05-12T14:15:32.976Z,29.82
2023-05-12T14:18:09.615Z,29.34
2023-05-12T14:20:38.594Z,30.13
2023-05-12T14:23:07.720Z,30.68
2023-05-12T14:25:36.732Z,30.87
2023-05-12T14:28:05.814Z,31.65
2023-05-12T14:30:36.196Z,31.58
2023-05-12T14:33:05.639Z,31.76
2023-05-12T14:35:34.609Z,31.40
2023-05-12T14:38:03.890Z,30.08
2023-05-12T14:40:33.377Z,30.14
2023-05-12T14:43:03.544Z,30.33
2023-05-12T14:45:33.437Z,31.14
2023-05-12T14:48:03.463Z,31.50
2023-05-12T14:50:33.369Z,31.85
2023-05-12T14:53:03.067Z,32.82
2023-05-12T14:55:32.692Z,32.54
2023-05-12T14:58:02.436Z,32.55
2023-05-12T15:00:32.313Z,33.89
2023-05-12T15:03:03.799Z,34.23
2023-05-12T15:05:47.711Z,35.01
2023-05-12T15:08:25.466Z,34.73
2023-05-12T15:10:55.507Z,34.49
2023-05-12T15:13:28.305Z,35.05
2023-05-12T15:16:00.650Z,34.62
2023-05-12T15:18:30.910Z,34.59
2023-05-12T15:21:00.706Z,34.53
2023-05-12T15:23:30.791Z,34.46
2023-05-12T15:26:10.554Z,34.80
2023-05-12T15:28:48.103Z,35.11
2023-05-12T15:31:20.626Z,35.96
2023-05-12T15:33:50.645Z,37.12
2023-05-12T15:36:20.486Z,38.02
2023-05-12T15:38:52.589Z,37.65
2023-05-12T15:41:25.095Z,37.03
2023-05-12T15:43:55.057Z,36.94
2023-05-12T15:46:25.724Z,36.96
2023-05-12T15:48:58.244Z,36.33
2023-05-12T15:51:33.661Z,35.30
2023-05-12T15:54:04.063Z,34.50
2023-05-12T15:56:34.652Z,34.09
2023-05-12T15:59:06.502Z,34.25
2023-05-12T16:01:40.503Z,33.20
2023-05-12T16:04:11.978Z,31.83
2023-05-12T16:06:42.034Z,31.93
2023-05-12T16:09:13.428Z,31.16
2023-05-12T16:11:45.515Z,34.13
2023-05-12T16:14:16.445Z,34.28
2023-05-12T16:16:50.715Z,34.07
2023-05-12T16:19:20.667Z,31.88
2023-05-12T16:21:52.000Z,32.49
2023-05-12T16:24:22.611Z,30.95
2023-05-12T16:26:52.534Z,32.30
2023-05-12T16:29:24.548Z,32.91
2023-05-12T16:31:55.124Z,33.73
2023-05-12T16:34:35.244Z,34.22
2023-05-12T16:37:07.893Z,35.13
2023-05-12T16:39:38.156Z,36.00
2023-05-12T16:42:08.274Z,35.76
2023-05-12T16:44:45.020Z,36.00
2023-05-12T16:47:19.998Z,36.77
2023-05-12T16:50:03.500Z,36.83
2023-05-12T16:52:43.855Z,36.20
2023-05-12T16:55:20.168Z,36.28
2023-05-12T16:57:57.150Z,36.32
2023-05-12T17:00:37.370Z,36.32
2023-05-12T17:03:18.674Z,36.37
2023-05-12T17:06:00.126Z,36.67
2023-05-12T17:08:37.251Z,37.66
2023-05-12T17:11:10.255Z,37.43
2023-05-12T17:13:40.354Z,36.60
2023-05-12T17:16:26.383Z,37.03
2023-05-12T17:19:36.476Z,37.76
2023-05-12T17:22:27.395Z,38.69
2023-05-12T17:25:11.456Z,38.53
2023-05-12T17:28:19.361Z,38.19
2023-05-12T17:33:40.307Z,39.13
2023-05-12T17:36:27.362Z,39.32
2023-05-12T17:39:07.162Z,39.58
2023-05-12T17:44:28.796Z,38.94
2023-05-12T17:47:03.815Z,39.38
2023-05-12T17:49:48.744Z,39.34
2023-05-12T17:52:39.912Z,38.32
2023-05-12T17:58:18.135Z,38.73
2023-05-12T18:01:08.502Z,38.53
2023-05-12T18:03:51.737Z,39.38
2023-05-12T18:06:42.969Z,38.96
2023-05-12T18:09:31.266Z,38.66
2023-05-12T18:12:13.295Z,38.37
2023-05-12T18:14:48.707Z,38.35
2023-05-12T18:17:25.945Z,38.81
2023-05-12T18:19:58.401Z,38.81
2023-05-12T18:22:31.704Z,39.02
2023-05-12T18:25:13.047Z,39.61
2023-05-12T18:27:53.263Z,39.89
2023-05-12T18:30:29.956Z,40.43
2023-05-12T18:33:03.630Z,40.65
2023-05-12T18:35:35.047Z,41.21
2023-05-12T18:38:05.275Z,40.71
2023-05-12T18:40:46.055Z,40.48
2023-05-12T18:43:19.863Z,40.84
2023-05-12T18:45:59.906Z,40.58
2023-05-12T18:48:34.507Z,39.56
2023-05-12T18:51:10.104Z,38.47
2023-05-12T18:53:40.998Z,39.05
2023-05-12T18:56:11.395Z,37.17
2023-05-12T18:58:41.447Z,35.66
2023-05-12T19:01:11.575Z,35.56
2023-05-12T19:03:41.772Z,36.04
2023-05-12T19:06:12.265Z,37.13
2023-05-12T19:08:42.041Z,37.35
2023-05-12T19:11:11.136Z,37.25
2023-05-12T19:13:43.753Z,37.05
2023-05-12T19:16:13.221Z,36.78
2023-05-12T19:18:42.508Z,36.75
2023-05-12T19:21:12.221Z,36.91
2023-05-12T19:23:41.404Z,37.06
2023-05-12T19:26:12.141Z,37.17
2023-05-12T19:28:41.413Z,37.46
2023-05-12T19:31:11.283Z,37.69
2023-05-12T19:33:40.666Z,38.03
2023-05-12T19:36:09.697Z,38.14
2023-05-12T19:38:39.169Z,37.58
2023-05-12T19:41:08.348Z,37.26
2023-05-12T19:43:37.801Z,36.50
2023-05-12T19:46:06.779Z,37.30
2023-05-12T19:48:36.589Z,37.92
2023-05-12T19:51:05.986Z,37.39
2023-05-12T19:53:35.194Z,37.77
2023-05-12T19:56:04.207Z,38.65
2023-05-12T19:58:33.385Z,38.64
2023-05-12T20:01:02.798Z,38.73
2023-05-12T20:03:33.632Z,38.85
2023-05-12T20:06:03.321Z,39.05
2023-05-12T20:08:32.974Z,39.60
2023-05-12T20:11:03.391Z,39.49
2023-05-12T20:13:34.479Z,39.85
2023-05-12T20:16:04.798Z,39.44
2023-05-12T20:18:34.950Z,40.13
2023-05-12T20:21:04.883Z,41.24
2023-05-12T20:23:35.084Z,41.35
2023-05-12T20:26:06.742Z,41.41
2023-05-12T20:28:38.498Z,41.76
2023-05-12T20:31:11.986Z,39.78
2023-05-12T20:33:44.431Z,38.65
2023-05-12T20:36:16.290Z,38.81
2023-05-12T20:38:47.913Z,39.08
2023-05-12T20:41:20.768Z,39.08
2023-05-12T20:43:53.318Z,39.71
2023-05-12T20:46:24.632Z,40.06
2023-05-12T20:48:58.005Z,39.98
2023-05-12T20:51:30.515Z,38.90
2023-05-12T20:54:02.622Z,39.55
2023-05-12T20:56:35.273Z,39.54
2023-05-12T20:59:06.790Z,40.57
2023-05-12T21:01:38.691Z,40.83
2023-05-12T21:04:10.620Z,39.69
2023-05-12T21:06:42.382Z,39.68
2023-05-12T21:09:14.831Z,39.05
2023-05-12T21:11:47.075Z,38.88
2023-05-12T21:14:18.873Z,39.33
2023-05-12T21:16:50.717Z,39.20
2023-05-12T21:19:22.333Z,39.43
2023-05-12T21:21:53.711Z,39.25
2023-05-12T21:24:25.440Z,38.27
2023-05-12T21:26:57.450Z,38.59
2023-05-12T21:29:29.318Z,38.55
2023-05-12T21:32:06.031Z,38.05
2023-05-12T21:34:38.884Z,37.56
2023-05-12T21:37:10.769Z,36.60
2023-05-12T21:39:42.563Z,35.63
2023-05-12T21:42:14.430Z,35.20
2023-05-12T21:44:45.606Z,35.56
2023-05-12T21:47:18.370Z,34.09
2023-05-12T21:49:50.149Z,33.64
2023-05-12T21:52:22.098Z,33.90
2023-05-12T21:54:54.860Z,34.54
2023-05-12T21:57:27.556Z,34.32
2023-05-12T22:00:04.090Z,34.69
2023-05-12T22:02:41.347Z,35.12
2023-05-12T22:05:14.015Z,34.91
2023-05-12T22:07:45.525Z,34.57
2023-05-12T22:10:16.697Z,37.12
2023-05-12T22:12:48.525Z,37.05
2023-05-12T22:15:21.073Z,36.23
2023-05-12T22:17:52.481Z,36.31
2023-05-12T22:20:24.973Z,35.64
2023-05-12T22:22:56.797Z,35.72
2023-05-12T22:25:29.133Z,35.67
2023-05-12T22:28:00.788Z,35.78
2023-05-12T22:30:32.540Z,36.37
2023-05-12T22:33:04.604Z,36.61
2023-05-12T22:35:36.515Z,36.70
2023-05-12T22:38:08.015Z,36.63
2023-05-12T22:40:39.410Z,35.95
2023-05-12T22:43:20.415Z,35.79
2023-05-12T22:45:57.758Z,36.80
2023-05-12T22:48:32.136Z,37.64
2023-05-12T22:51:06.773Z,38.10
2023-05-12T22:53:44.364Z,38.90
2023-05-12T22:56:15.472Z,39.24
2023-05-12T22:58:48.235Z,39.85
2023-05-12T23:01:20.846Z,40.00
2023-05-12T23:03:52.747Z,40.00
2023-05-12T23:06:23.825Z,40.60
2023-05-12T23:08:55.569Z,41.17
2023-05-12T23:11:27.864Z,41.34
2023-05-12T23:13:59.794Z,41.11
2023-05-12T23:16:32.124Z,41.57
2023-05-12T23:19:04.192Z,40.75
2023-05-12T23:21:36.235Z,41.26
2023-05-12T23:24:09.045Z,40.31
2023-05-12T23:26:40.418Z,40.30
2023-05-12T23:29:12.401Z,40.68
2023-05-12T23:31:44.378Z,41.47
2023-05-12T23:34:15.855Z,41.33
2023-05-12T23:36:47.188Z,41.15
2023-05-12T23:39:19.135Z,41.31
2023-05-12T23:41:51.807Z,41.41
2023-05-12T23:44:23.739Z,41.49
2023-05-12T23:46:56.331Z,42.78
2023-05-12T23:49:28.159Z,42.87
2023-05-12T23:52:00.140Z,42.49
2023-05-12T23:54:32.107Z,41.58
2023-05-12T23:57:05.421Z,41.37
2023-05-12T23:59:37.491Z,41.37
